Port Star — 3EAS6 — position and weather

sailwx.info

Track history (hours):
 
Tides and Currents Weather Stations Pressure Air Temp Water Temp Dewpoint Dewpoint Depression Visibility Wind Speed Wind Dir Waves Ship Positions

Port Star

Last reported at 2017-Jun-21 17:29 UTC. Time now 2017-Jun-28 10:28 UTC.
Position S 27°03' E 153°44'.

Length 175.5 m; beam 29.4 m.

Type: Ship. MMSI: 356105000.

Date/timePositionNaut miles runAvg speedWind from/ knotsBaromVisibWave heightAir tempDewpointWater temp
2017-Jun-21 17:29S 27°03' E 153°44'337 9.7
2017-Jun-20 06:39S 32°35' E 152°34'2 8.9
2017-Jun-20 06:29S 32°36' E 152°33'4 8.7
2017-Jun-20 06:00S 32°39' E 152°30'4 8.9
2017-Jun-20 05:30S 32°41' E 152°25'4 8.8
2017-Jun-20 05:00S 32°44' E 152°21'4 8.8
2017-Jun-20 04:30S 32°47' E 152°17'4 8.8
2017-Jun-20 04:00S 32°49' E 152°13'5 9.0
2017-Jun-20 03:30S 32°52' E 152°08'5 9.0
2017-Jun-20 03:00S 32°55' E 152°04'5 9.3
2017-Jun-20 02:31S 32°57' E 151°60'5 9.3
2017-Jun-20 02:00S 33°00' E 151°55'4 7.5
2017-Jun-20 01:30S 33°03' E 151°52'3 5.5
2017-Jun-20 01:00S 33°04' E 151°55'3 5.9
2017-Jun-20 00:30S 33°04' E 151°58'0 0.9
2017-Jun-20 00:01S 33°04' E 151°59'0 0.9
2017-Jun-19 23:30S 33°04' E 151°59'0 0.9
2017-Jun-19 23:00S 33°05' E 151°60'0 0.8
2017-Jun-19 22:30S 33°05' E 152°00'1 1.0
2017-Jun-19 22:01S 33°04' E 152°01'2 4.2
2017-Jun-19 21:31S 33°03' E 151°59'2 4.2
2017-Jun-19 21:00S 33°01' E 151°57'2 4.0
2017-Jun-19 20:30S 32°60' E 151°56'2 3.9
2017-Jun-19 20:00S 32°58' E 151°54'2 3.3
2017-Jun-19 19:30S 32°57' E 151°53'2 4.1
2017-Jun-19 19:00S 32°56' E 151°50'3 5.6
2017-Jun-19 18:30S 32°55' E 151°47'1 1.2
2017-Jun-19 18:00S 32°55' E 151°47'0 0.9
2017-Jun-19 17:28S 32°55' E 151°46'0 0.0
2017-Jun-19 16:58S 32°55' E 151°46'0 0.0
2017-Jun-19 16:28S 32°55' E 151°46'0 0.0
2017-Jun-19 15:58S 32°55' E 151°46'0 0.0
2017-Jun-19 15:28S 32°55' E 151°46'0 0.0
2017-Jun-19 14:58S 32°55' E 151°46'0 0.0
2017-Jun-19 14:28S 32°55' E 151°46'0 0.0
2017-Jun-19 13:28S 32°55' E 151°46'0 0.0
2017-Jun-19 12:58S 32°55' E 151°46'0 0.0
2017-Jun-19 12:28S 32°55' E 151°46'0 0.0
2017-Jun-19 11:58S 32°55' E 151°46'0 0.0
2017-Jun-19 11:28S 32°55' E 151°46'0 0.0
2017-Jun-19 10:58S 32°55' E 151°46'0 0.0
2017-Jun-19 10:28S 32°55' E 151°46'0 0.0
2017-Jun-19 09:58S 32°55' E 151°46'0 0.0
2017-Jun-19 09:28S 32°55' E 151°46'0 0.0
2017-Jun-19 08:58S 32°55' E 151°46'0 0.0
2017-Jun-19 08:28S 32°55' E 151°46'0 0.0
2017-Jun-19 07:58S 32°55' E 151°46'0 0.0
2017-Jun-19 07:28S 32°55' E 151°46'0 0.0
2017-Jun-19 06:58S 32°55' E 151°46'0 0.0
2017-Jun-19 06:28S 32°55' E 151°46'0 0.0
2017-Jun-19 05:58S 32°55' E 151°46'0 0.0
2017-Jun-19 05:28S 32°55' E 151°46'0 0.0
2017-Jun-19 04:58S 32°55' E 151°46'0 0.0
2017-Jun-19 04:28S 32°55' E 151°46'0 0.0
2017-Jun-19 03:58S 32°55' E 151°46'0 0.0
2017-Jun-19 03:28S 32°55' E 151°46'0 0.0
2017-Jun-19 02:58S 32°55' E 151°46'0 0.0
2017-Jun-19 02:28S 32°55' E 151°46'0 0.0
2017-Jun-19 01:58S 32°55' E 151°46'0 0.0
2017-Jun-19 01:28S 32°55' E 151°46'0 0.0
2017-Jun-19 00:58S 32°55' E 151°46'0 0.0
2017-Jun-19 00:28S 32°55' E 151°46'0 0.0
2017-Jun-18 23:58S 32°55' E 151°46'0 0.0
2017-Jun-18 23:28S 32°55' E 151°46'0 0.0
2017-Jun-18 22:58S 32°55' E 151°46'0 0.0
2017-Jun-18 22:28S 32°55' E 151°46'0 0.0
2017-Jun-18 21:58S 32°55' E 151°46'0 0.0
2017-Jun-18 21:28S 32°55' E 151°46'0 0.0
2017-Jun-18 20:58S 32°55' E 151°46'0 0.0
2017-Jun-18 20:28S 32°55' E 151°46'0 0.0
2017-Jun-18 19:58S 32°55' E 151°46'0 0.0
2017-Jun-18 19:28S 32°55' E 151°46'0 0.0
2017-Jun-18 18:58S 32°55' E 151°46'0 0.0
2017-Jun-18 18:28S 32°55' E 151°46'0 0.0
2017-Jun-18 17:58S 32°55' E 151°46'0 0.0
2017-Jun-18 17:28S 32°55' E 151°46'0 0.0
2017-Jun-18 16:58S 32°55' E 151°46'0 0.0
2017-Jun-18 16:28S 32°55' E 151°46'0 0.0
2017-Jun-18 15:58S 32°55' E 151°46'0 0.0
2017-Jun-18 15:28S 32°55' E 151°46'0 0.0
2017-Jun-18 14:58S 32°55' E 151°46'0 0.0
2017-Jun-18 13:58S 32°55' E 151°46'0 0.0
2017-Jun-18 13:28S 32°55' E 151°46'0 0.0
2017-Jun-18 12:58S 32°55' E 151°46'0 0.0
2017-Jun-18 12:28S 32°55' E 151°46'0 0.0
2017-Jun-18 11:58S 32°55' E 151°46'0 0.0
2017-Jun-18 11:28S 32°55' E 151°46'0 0.0
2017-Jun-18 10:58S 32°55' E 151°46'0 0.0
2017-Jun-18 10:28S 32°55' E 151°46'0 0.0
2017-Jun-18 09:58S 32°55' E 151°46'0 0.0
2017-Jun-18 09:28S 32°55' E 151°46'0 0.0
2017-Jun-18 08:58S 32°55' E 151°46'0 0.0
2017-Jun-18 08:28S 32°55' E 151°46'0 0.0
2017-Jun-18 07:58S 32°55' E 151°46'0 0.0
2017-Jun-18 07:28S 32°55' E 151°46'0 0.0
2017-Jun-18 06:58S 32°55' E 151°46'0 0.0
2017-Jun-18 06:28S 32°55' E 151°46'0 0.0
2017-Jun-18 05:58S 32°55' E 151°46'0 0.0
2017-Jun-18 05:28S 32°55' E 151°46'0 0.0
2017-Jun-18 04:58S 32°55' E 151°46'0 0.0
2017-Jun-18 04:28S 32°55' E 151°46'0 0.0
2017-Jun-18 03:58S 32°55' E 151°46'0 0.0
2017-Jun-18 03:28S 32°55' E 151°46'0 0.0
2017-Jun-18 02:58S 32°55' E 151°46'0 0.0
2017-Jun-18 02:28S 32°55' E 151°46'0 0.0
2017-Jun-18 01:58S 32°55' E 151°46'0 0.0
2017-Jun-18 01:28S 32°55' E 151°46'0 0.0
2017-Jun-18 00:58S 32°55' E 151°46'0 0.0
2017-Jun-18 00:28S 32°55' E 151°46'0 0.0
2017-Jun-17 23:58S 32°55' E 151°46'0 0.0
2017-Jun-17 23:28S 32°55' E 151°46'0 0.0
2017-Jun-17 22:58S 32°55' E 151°46'0 0.0
2017-Jun-17 22:28S 32°55' E 151°46'0 0.0
2017-Jun-17 21:58S 32°55' E 151°46'0 0.0
2017-Jun-17 21:28S 32°55' E 151°46'0 0.0
2017-Jun-17 20:58S 32°55' E 151°46'0 0.0
2017-Jun-17 20:28S 32°55' E 151°46'0 0.0
2017-Jun-17 19:58S 32°55' E 151°46'0 0.0
2017-Jun-17 19:28S 32°55' E 151°46'0 0.0
2017-Jun-17 18:58S 32°55' E 151°46'0 0.0
2017-Jun-17 18:28S 32°55' E 151°46'0 0.0
2017-Jun-17 17:58S 32°55' E 151°46'0 0.0
2017-Jun-17 17:28S 32°55' E 151°46'0 0.0
2017-Jun-17 16:58S 32°55' E 151°46'0 0.0
2017-Jun-17 16:28S 32°55' E 151°46'0 0.0
2017-Jun-17 15:58S 32°55' E 151°46'0 0.0
2017-Jun-17 15:28S 32°55' E 151°46'0 0.0
2017-Jun-17 14:58S 32°55' E 151°46'0 0.0
2017-Jun-17 13:58S 32°55' E 151°46'0 0.0
2017-Jun-17 13:28S 32°55' E 151°46'0 0.0
2017-Jun-17 12:58S 32°55' E 151°46'0 0.0
2017-Jun-17 12:28S 32°55' E 151°46'0 0.0
2017-Jun-17 11:58S 32°55' E 151°46'0 0.0
2017-Jun-17 11:28S 32°55' E 151°46'0 0.0
2017-Jun-17 10:58S 32°55' E 151°46'0 0.0
2017-Jun-17 10:28S 32°55' E 151°46'0 0.0
2017-Jun-17 09:58S 32°55' E 151°46'0 0.0
2017-Jun-17 09:28S 32°55' E 151°46'0 0.0
2017-Jun-17 08:58S 32°55' E 151°46'0 0.0
2017-Jun-17 08:28S 32°55' E 151°46'0 0.0
2017-Jun-17 07:58S 32°55' E 151°46'0 0.0
2017-Jun-17 07:28S 32°55' E 151°46'0 0.0
2017-Jun-17 06:58S 32°55' E 151°46'0 0.0
2017-Jun-17 06:28S 32°55' E 151°46'0 0.0
2017-Jun-17 05:58S 32°55' E 151°46'0 0.0
2017-Jun-17 05:28S 32°55' E 151°46'0 0.0
2017-Jun-17 04:58S 32°55' E 151°46'0 0.0
2017-Jun-17 04:28S 32°55' E 151°46'0 0.0
2017-Jun-17 03:58S 32°55' E 151°46'0 0.0
2017-Jun-17 03:28S 32°55' E 151°46'0 0.0
2017-Jun-17 02:58S 32°55' E 151°46'0 0.0
2017-Jun-17 02:28S 32°55' E 151°46'0 0.0
2017-Jun-17 01:58S 32°55' E 151°46'0 0.0
2017-Jun-17 01:28S 32°55' E 151°46'0 0.0
2017-Jun-17 00:58S 32°55' E 151°46'0 0.0
2017-Jun-17 00:28S 32°55' E 151°46'0 0.0
2017-Jun-16 23:58S 32°55' E 151°46'0 0.0
2017-Jun-16 23:28S 32°55' E 151°46'0 0.0
2017-Jun-16 22:58S 32°55' E 151°46'0 0.0
2017-Jun-16 22:28S 32°55' E 151°46'0 0.0
2017-Jun-16 21:55S 32°55' E 151°46'0 0.0
2017-Jun-16 21:28S 32°55' E 151°46'0 0.0
2017-Jun-16 20:58S 32°55' E 151°46'0 0.0
2017-Jun-16 20:28S 32°55' E 151°46'0 0.0
2017-Jun-16 19:58S 32°55' E 151°46'0 0.0
2017-Jun-16 19:28S 32°55' E 151°46'0 0.0
2017-Jun-16 18:58S 32°55' E 151°46'0 0.0
2017-Jun-16 18:28S 32°55' E 151°46'0 0.0
2017-Jun-16 17:58S 32°55' E 151°46'0 0.0
2017-Jun-16 17:28S 32°55' E 151°46'0 0.0
2017-Jun-16 16:58S 32°55' E 151°46'0 0.0
2017-Jun-16 16:28S 32°55' E 151°46'0 0.0
2017-Jun-16 15:58S 32°55' E 151°46'0 0.0
2017-Jun-16 15:28S 32°55' E 151°46'0 0.0
2017-Jun-16 14:58S 32°55' E 151°46'0 0.0
2017-Jun-16 14:28S 32°55' E 151°46'0 0.0
2017-Jun-16 13:28S 32°55' E 151°46'0 0.0
2017-Jun-16 12:58S 32°55' E 151°46'0 0.0
2017-Jun-16 12:28S 32°55' E 151°46'0 0.0
2017-Jun-16 11:58S 32°55' E 151°46'0 0.0
2017-Jun-16 11:28S 32°55' E 151°46'0 0.0
2017-Jun-16 10:58S 32°55' E 151°46'0 0.0
2017-Jun-16 10:28S 32°55' E 151°46'0 0.0
2017-Jun-16 09:58S 32°55' E 151°46'0 0.0
2017-Jun-16 09:28S 32°55' E 151°46'0 0.0
2017-Jun-16 08:58S 32°55' E 151°46'0 0.0
2017-Jun-16 08:28S 32°55' E 151°46'0 0.0
2017-Jun-16 07:58S 32°55' E 151°46'0 0.0
2017-Jun-16 07:28S 32°55' E 151°46'0 0.0
2017-Jun-16 06:58S 32°55' E 151°46'0 0.0
2017-Jun-16 06:28S 32°55' E 151°46'0 0.0
2017-Jun-16 05:58S 32°55' E 151°46'0 0.0
2017-Jun-16 05:28S 32°55' E 151°46'0 0.0
2017-Jun-16 04:58S 32°55' E 151°46'0 0.0
2017-Jun-16 04:28S 32°55' E 151°46'0 0.0
2017-Jun-16 03:58S 32°55' E 151°46'0 0.0
2017-Jun-16 03:28S 32°55' E 151°46'0 0.0
2017-Jun-16 02:58S 32°55' E 151°46'0 0.0
2017-Jun-16 02:28S 32°55' E 151°46'0 0.0
2017-Jun-16 01:58S 32°55' E 151°46'0 0.0
2017-Jun-16 01:28S 32°55' E 151°46'0 0.0
2017-Jun-16 00:58S 32°55' E 151°46'0 0.0
2017-Jun-16 00:28S 32°55' E 151°46'0 0.0
2017-Jun-15 23:58S 32°55' E 151°46'0 0.0
2017-Jun-15 23:28S 32°55' E 151°46'0 0.0
2017-Jun-15 22:58S 32°55' E 151°46'0 0.0
2017-Jun-15 22:28S 32°55' E 151°46'0 0.0
2017-Jun-15 21:58S 32°55' E 151°46'0 0.0
2017-Jun-15 21:28S 32°55' E 151°46'0 0.0
2017-Jun-15 20:58S 32°55' E 151°46'0 0.0
2017-Jun-15 20:28S 32°55' E 151°46'0 0.0
2017-Jun-15 19:58S 32°55' E 151°46'0 0.0
2017-Jun-15 19:28S 32°55' E 151°46'0 0.0
2017-Jun-15 18:58S 32°55' E 151°46'0 0.0
2017-Jun-15 18:28S 32°55' E 151°46'0 0.0
2017-Jun-15 17:58S 32°55' E 151°46'0 0.0
2017-Jun-15 17:28S 32°55' E 151°46'0 0.0
2017-Jun-15 16:58S 32°55' E 151°46'0 0.0
2017-Jun-15 16:28S 32°55' E 151°46'0 0.0
2017-Jun-15 15:58S 32°55' E 151°46'0 0.0
2017-Jun-15 15:28S 32°55' E 151°46'0 0.0
2017-Jun-15 14:58S 32°55' E 151°46'0 0.0
2017-Jun-15 14:28S 32°55' E 151°46'0 0.0
2017-Jun-15 13:28S 32°55' E 151°46'0 0.0
2017-Jun-15 12:58S 32°55' E 151°46'0 0.0
2017-Jun-15 12:28S 32°55' E 151°46'0 0.0
2017-Jun-15 11:58S 32°55' E 151°46'0 0.0
2017-Jun-15 11:28S 32°55' E 151°46'0 0.0
2017-Jun-15 10:58S 32°55' E 151°46'0 0.0
2017-Jun-15 10:28S 32°55' E 151°46'0 0.0
2017-Jun-15 09:58S 32°55' E 151°46'0 0.0
2017-Jun-15 09:28S 32°55' E 151°46'0 0.0
2017-Jun-15 08:58S 32°55' E 151°46'0 0.0
2017-Jun-15 08:28S 32°55' E 151°46'0 0.0
2017-Jun-15 07:58S 32°55' E 151°46'0 0.0
2017-Jun-15 07:28S 32°55' E 151°46'0 0.0
2017-Jun-15 06:58S 32°55' E 151°46'0 0.0
2017-Jun-15 06:28S 32°55' E 151°46'0 0.0
2017-Jun-15 05:58S 32°55' E 151°46'0 0.0
2017-Jun-15 05:28S 32°55' E 151°46'0 0.0
2017-Jun-15 04:58S 32°55' E 151°46'0 0.0
2017-Jun-15 04:28S 32°55' E 151°46'0 0.0
2017-Jun-15 03:58S 32°55' E 151°46'0 0.0
2017-Jun-15 03:28S 32°55' E 151°46'0 0.0
2017-Jun-15 02:58S 32°55' E 151°46'0 0.0
2017-Jun-15 02:28S 32°55' E 151°46'0 0.0
2017-Jun-15 01:58S 32°55' E 151°46'0 0.0
2017-Jun-15 01:28S 32°55' E 151°46'0 0.0
2017-Jun-15 00:58S 32°55' E 151°46'0 0.0
2017-Jun-15 00:28S 32°55' E 151°46'0 0.0
2017-Jun-14 23:58S 32°55' E 151°46'0 0.0
2017-Jun-14 23:28S 32°55' E 151°46'0 0.0
2017-Jun-14 22:58S 32°55' E 151°46'0 0.0
2017-Jun-14 22:28S 32°55' E 151°46'0 0.0
2017-Jun-14 21:58S 32°55' E 151°46'0 0.0
2017-Jun-14 21:28S 32°55' E 151°46'0 0.0
2017-Jun-14 20:58S 32°55' E 151°46'0 0.0
2017-Jun-14 20:28S 32°55' E 151°46'0 0.0
2017-Jun-14 19:58S 32°55' E 151°46'0 0.0
2017-Jun-14 19:28S 32°55' E 151°46'0 0.0
2017-Jun-14 18:58S 32°55' E 151°46'0 0.0
2017-Jun-14 18:28S 32°55' E 151°46'0 0.0
2017-Jun-14 17:58S 32°55' E 151°46'0 0.0
2017-Jun-14 17:28S 32°55' E 151°46'0 0.0
2017-Jun-14 16:58S 32°55' E 151°46'0 0.0
2017-Jun-14 16:28S 32°55' E 151°46'0 0.0
2017-Jun-14 15:58S 32°55' E 151°46'0 0.0
2017-Jun-14 15:28S 32°55' E 151°46'0 0.0
2017-Jun-14 14:58S 32°55' E 151°46'0 0.0
2017-Jun-14 13:58S 32°55' E 151°46'0 0.0
2017-Jun-14 13:28S 32°55' E 151°46'0 0.0
2017-Jun-14 12:58S 32°55' E 151°46'0 0.0
2017-Jun-14 12:28S 32°55' E 151°46'0 0.0
2017-Jun-14 11:58S 32°55' E 151°46'0 0.0
2017-Jun-14 11:28S 32°55' E 151°46'0 0.0
2017-Jun-14 10:58S 32°55' E 151°46'0 0.0
2017-Jun-14 10:28S 32°55' E 151°46'0 0.0
2017-Jun-14 09:58S 32°55' E 151°46'0 0.0
2017-Jun-14 09:28S 32°55' E 151°46'0 0.0
2017-Jun-14 08:58S 32°55' E 151°46'0 0.0
2017-Jun-14 08:28S 32°55' E 151°46'0 0.0
2017-Jun-14 07:58S 32°55' E 151°46'0 0.0
2017-Jun-14 07:28S 32°55' E 151°46'0 0.0
2017-Jun-14 06:58S 32°55' E 151°46'0 0.0
2017-Jun-14 06:28S 32°55' E 151°46'0 0.0
2017-Jun-14 05:58S 32°55' E 151°46'0 0.0
2017-Jun-14 05:28S 32°55' E 151°46'0 0.0
2017-Jun-14 04:58S 32°55' E 151°46'0 0.0
2017-Jun-14 04:28S 32°55' E 151°46'0 0.0
2017-Jun-14 03:58S 32°55' E 151°46'0 0.0
2017-Jun-14 03:28S 32°55' E 151°46'0 0.0
2017-Jun-14 02:58S 32°55' E 151°46'0 0.0
2017-Jun-14 02:28S 32°55' E 151°46'0 0.0
2017-Jun-14 01:58S 32°55' E 151°46'0 0.0
2017-Jun-14 01:28S 32°55' E 151°46'0 0.0
2017-Jun-14 00:58S 32°55' E 151°46'0 0.0
2017-Jun-14 00:28S 32°55' E 151°46'0 0.0
2017-Jun-13 23:58S 32°55' E 151°46'0 0.0
2017-Jun-13 23:28S 32°55' E 151°46'0 0.0
2017-Jun-13 22:58S 32°55' E 151°46'0 0.0
2017-Jun-13 22:28S 32°55' E 151°46'0 0.0
2017-Jun-13 21:58S 32°55' E 151°46'0 0.0
2017-Jun-13 21:28S 32°55' E 151°46'0 0.0
2017-Jun-13 20:58S 32°55' E 151°46'0 0.0
2017-Jun-13 20:28S 32°55' E 151°46'0 0.0
2017-Jun-13 19:58S 32°55' E 151°46'0 0.0
2017-Jun-13 19:28S 32°55' E 151°46'0 0.0
2017-Jun-13 18:58S 32°55' E 151°46'0 0.0
2017-Jun-13 18:28S 32°55' E 151°46'0 0.0
2017-Jun-13 17:58S 32°55' E 151°46'0 0.0
2017-Jun-13 17:25S 32°55' E 151°46'0 0.0
2017-Jun-13 16:58S 32°55' E 151°46'0 0.0
2017-Jun-13 16:28S 32°55' E 151°46'0 0.0
2017-Jun-13 15:58S 32°55' E 151°46'0 0.0
2017-Jun-13 15:28S 32°55' E 151°46'0 0.0
2017-Jun-13 14:58S 32°55' E 151°46'0 0.0
2017-Jun-13 13:58S 32°55' E 151°46'0 0.0
2017-Jun-13 13:28S 32°55' E 151°46'0 0.0
2017-Jun-13 12:58S 32°55' E 151°46'0 0.0
2017-Jun-13 12:28S 32°55' E 151°46'0 0.0
2017-Jun-13 11:58S 32°55' E 151°46'0 0.0
2017-Jun-13 11:28S 32°55' E 151°46'0 0.0
2017-Jun-13 10:58S 32°55' E 151°46'0 0.0
2017-Jun-13 10:28S 32°55' E 151°46'0 0.0
2017-Jun-13 09:58S 32°55' E 151°46'0 0.0
2017-Jun-13 09:28S 32°55' E 151°46'0 0.0
2017-Jun-13 08:58S 32°55' E 151°46'0 0.0
2017-Jun-13 08:28S 32°55' E 151°46'0 0.0
2017-Jun-13 07:58S 32°55' E 151°46'0 0.0
2017-Jun-13 07:25S 32°55' E 151°46'0 0.0
2017-Jun-13 06:58S 32°55' E 151°46'0 0.0
2017-Jun-13 06:28S 32°55' E 151°46'0 0.0
2017-Jun-13 05:58S 32°55' E 151°46'0 0.0
2017-Jun-13 05:28S 32°55' E 151°46'0 0.0
2017-Jun-13 04:58S 32°55' E 151°46'0 0.0
2017-Jun-13 04:28S 32°55' E 151°46'0 0.0
2017-Jun-13 03:58S 32°55' E 151°46'0 0.0
2017-Jun-13 03:28S 32°55' E 151°46'0 0.0
2017-Jun-13 02:58S 32°55' E 151°46'0 0.0
2017-Jun-13 02:28S 32°55' E 151°46'0 0.0
2017-Jun-13 01:58S 32°55' E 151°46'0 0.0
2017-Jun-13 01:28S 32°55' E 151°46'0 0.0
2017-Jun-13 00:58S 32°55' E 151°46'0 0.0
2017-Jun-13 00:28S 32°55' E 151°46'0 0.0
2017-Jun-12 23:58S 32°55' E 151°46'0 0.0
2017-Jun-12 23:28S 32°55' E 151°46'0 0.0
2017-Jun-12 22:58S 32°55' E 151°46'0 0.0
2017-Jun-12 22:28S 32°55' E 151°46'0 0.0
2017-Jun-12 21:58S 32°55' E 151°46'0 0.0
2017-Jun-12 21:28S 32°55' E 151°46'0 0.0
2017-Jun-12 20:58S 32°55' E 151°46'0 0.0
2017-Jun-12 20:28S 32°55' E 151°46'0 0.0
2017-Jun-12 19:58S 32°55' E 151°46'0 0.0
2017-Jun-12 19:28S 32°55' E 151°46'0 0.0
2017-Jun-12 19:00S 32°55' E 151°46'0 0.0
2017-Jun-12 18:30S 32°55' E 151°46'1 2.3
2017-Jun-12 18:00S 32°55' E 151°48'4 7.7
2017-Jun-12 17:31S 32°56' E 151°52'4 8.4
2017-Jun-12 17:00S 33°00' E 151°52'5 6.9
2017-Jun-12 16:21S 33°04' E 151°49'2 6.4
2017-Jun-12 15:59S 33°05' E 151°47'2 1.0
2017-Jun-12 14:03S 33°07' E 151°45'0 0.0
2017-Jun-12 02:03S 33°07' E 151°45'0 0.0
2017-Jun-12 01:57S 33°07' E 151°45'0 0.0
2017-Jun-12 00:27S 33°07' E 151°45'0 0.0
2017-Jun-11 23:57S 33°07' E 151°45'0 0.0
2017-Jun-11 23:27S 33°07' E 151°45'0 0.0
2017-Jun-11 19:03S 33°07' E 151°45'0 0.0
2017-Jun-11 18:42S 33°07' E 151°45'0 0.1
2017-Jun-11 18:30S 33°07' E 151°45'0 0.0
2017-Jun-11 17:57S 33°07' E 151°45'  
Track history (hours):
 
Tides and Currents Weather Stations Pressure Air Temp Water Temp Dewpoint Dewpoint Depression Visibility Wind Speed Wind Dir Waves Ship Positions

Port Star

Last reported at 2017-Jun-21 17:29 UTC. Time now 2017-Jun-28 10:28 UTC.
Position S 27°03' E 153°44'.

Length 175.5 m; beam 29.4 m.

Type: Ship. MMSI: 356105000.

Date/timePositionNaut miles runAvg speedWind from/ knotsBaromVisibWave heightAir tempDewpointWater temp
2017-Jun-21 17:29S 27°03' E 153°44'337 9.7
2017-Jun-20 06:39S 32°35' E 152°34'2 8.9
2017-Jun-20 06:29S 32°36' E 152°33'4 8.7
2017-Jun-20 06:00S 32°39' E 152°30'4 8.9
2017-Jun-20 05:30S 32°41' E 152°25'4 8.8
2017-Jun-20 05:00S 32°44' E 152°21'4 8.8
2017-Jun-20 04:30S 32°47' E 152°17'4 8.8
2017-Jun-20 04:00S 32°49' E 152°13'5 9.0
2017-Jun-20 03:30S 32°52' E 152°08'5 9.0
2017-Jun-20 03:00S 32°55' E 152°04'5 9.3
2017-Jun-20 02:31S 32°57' E 151°60'5 9.3
2017-Jun-20 02:00S 33°00' E 151°55'4 7.5
2017-Jun-20 01:30S 33°03' E 151°52'3 5.5
2017-Jun-20 01:00S 33°04' E 151°55'3 5.9
2017-Jun-20 00:30S 33°04' E 151°58'0 0.9
2017-Jun-20 00:01S 33°04' E 151°59'0 0.9
2017-Jun-19 23:30S 33°04' E 151°59'0 0.9
2017-Jun-19 23:00S 33°05' E 151°60'0 0.8
2017-Jun-19 22:30S 33°05' E 152°00'1 1.0
2017-Jun-19 22:01S 33°04' E 152°01'2 4.2
2017-Jun-19 21:31S 33°03' E 151°59'2 4.2
2017-Jun-19 21:00S 33°01' E 151°57'2 4.0
2017-Jun-19 20:30S 32°60' E 151°56'2 3.9
2017-Jun-19 20:00S 32°58' E 151°54'2 3.3
2017-Jun-19 19:30S 32°57' E 151°53'2 4.1
2017-Jun-19 19:00S 32°56' E 151°50'3 5.6
2017-Jun-19 18:30S 32°55' E 151°47'1 1.2
2017-Jun-19 18:00S 32°55' E 151°47'0 0.9
2017-Jun-19 17:28S 32°55' E 151°46'0 0.0
2017-Jun-19 16:58S 32°55' E 151°46'0 0.0
2017-Jun-19 16:28S 32°55' E 151°46'0 0.0
2017-Jun-19 15:58S 32°55' E 151°46'0 0.0
2017-Jun-19 15:28S 32°55' E 151°46'0 0.0
2017-Jun-19 14:58S 32°55' E 151°46'0 0.0
2017-Jun-19 14:28S 32°55' E 151°46'0 0.0
2017-Jun-19 13:28S 32°55' E 151°46'0 0.0
2017-Jun-19 12:58S 32°55' E 151°46'0 0.0
2017-Jun-19 12:28S 32°55' E 151°46'0 0.0
2017-Jun-19 11:58S 32°55' E 151°46'0 0.0
2017-Jun-19 11:28S 32°55' E 151°46'0 0.0
2017-Jun-19 10:58S 32°55' E 151°46'0 0.0
2017-Jun-19 10:28S 32°55' E 151°46'0 0.0
2017-Jun-19 09:58S 32°55' E 151°46'0 0.0
2017-Jun-19 09:28S 32°55' E 151°46'0 0.0
2017-Jun-19 08:58S 32°55' E 151°46'0 0.0
2017-Jun-19 08:28S 32°55' E 151°46'0 0.0
2017-Jun-19 07:58S 32°55' E 151°46'0 0.0
2017-Jun-19 07:28S 32°55' E 151°46'0 0.0
2017-Jun-19 06:58S 32°55' E 151°46'0 0.0
2017-Jun-19 06:28S 32°55' E 151°46'0 0.0
2017-Jun-19 05:58S 32°55' E 151°46'0 0.0
2017-Jun-19 05:28S 32°55' E 151°46'0 0.0
2017-Jun-19 04:58S 32°55' E 151°46'0 0.0
2017-Jun-19 04:28S 32°55' E 151°46'0 0.0
2017-Jun-19 03:58S 32°55' E 151°46'0 0.0
2017-Jun-19 03:28S 32°55' E 151°46'0 0.0
2017-Jun-19 02:58S 32°55' E 151°46'0 0.0
2017-Jun-19 02:28S 32°55' E 151°46'0 0.0
2017-Jun-19 01:58S 32°55' E 151°46'0 0.0
2017-Jun-19 01:28S 32°55' E 151°46'0 0.0
2017-Jun-19 00:58S 32°55' E 151°46'0 0.0
2017-Jun-19 00:28S 32°55' E 151°46'0 0.0
2017-Jun-18 23:58S 32°55' E 151°46'0 0.0
2017-Jun-18 23:28S 32°55' E 151°46'0 0.0
2017-Jun-18 22:58S 32°55' E 151°46'0 0.0
2017-Jun-18 22:28S 32°55' E 151°46'0 0.0
2017-Jun-18 21:58S 32°55' E 151°46'0 0.0
2017-Jun-18 21:28S 32°55' E 151°46'0 0.0
2017-Jun-18 20:58S 32°55' E 151°46'0 0.0
2017-Jun-18 20:28S 32°55' E 151°46'0 0.0
2017-Jun-18 19:58S 32°55' E 151°46'0 0.0
2017-Jun-18 19:28S 32°55' E 151°46'0 0.0
2017-Jun-18 18:58S 32°55' E 151°46'0 0.0
2017-Jun-18 18:28S 32°55' E 151°46'0 0.0
2017-Jun-18 17:58S 32°55' E 151°46'0 0.0
2017-Jun-18 17:28S 32°55' E 151°46'0 0.0
2017-Jun-18 16:58S 32°55' E 151°46'0 0.0
2017-Jun-18 16:28S 32°55' E 151°46'0 0.0
2017-Jun-18 15:58S 32°55' E 151°46'0 0.0
2017-Jun-18 15:28S 32°55' E 151°46'0 0.0
2017-Jun-18 14:58S 32°55' E 151°46'0 0.0
2017-Jun-18 13:58S 32°55' E 151°46'0 0.0
2017-Jun-18 13:28S 32°55' E 151°46'0 0.0
2017-Jun-18 12:58S 32°55' E 151°46'0 0.0
2017-Jun-18 12:28S 32°55' E 151°46'0 0.0
2017-Jun-18 11:58S 32°55' E 151°46'0 0.0
2017-Jun-18 11:28S 32°55' E 151°46'0 0.0
2017-Jun-18 10:58S 32°55' E 151°46'0 0.0
2017-Jun-18 10:28S 32°55' E 151°46'0 0.0
2017-Jun-18 09:58S 32°55' E 151°46'0 0.0
2017-Jun-18 09:28S 32°55' E 151°46'0 0.0
2017-Jun-18 08:58S 32°55' E 151°46'0 0.0
2017-Jun-18 08:28S 32°55' E 151°46'0 0.0
2017-Jun-18 07:58S 32°55' E 151°46'0 0.0
2017-Jun-18 07:28S 32°55' E 151°46'0 0.0
2017-Jun-18 06:58S 32°55' E 151°46'0 0.0
2017-Jun-18 06:28S 32°55' E 151°46'0 0.0
2017-Jun-18 05:58S 32°55' E 151°46'0 0.0
2017-Jun-18 05:28S 32°55' E 151°46'0 0.0
2017-Jun-18 04:58S 32°55' E 151°46'0 0.0
2017-Jun-18 04:28S 32°55' E 151°46'0 0.0
2017-Jun-18 03:58S 32°55' E 151°46'0 0.0
2017-Jun-18 03:28S 32°55' E 151°46'0 0.0
2017-Jun-18 02:58S 32°55' E 151°46'0 0.0
2017-Jun-18 02:28S 32°55' E 151°46'0 0.0
2017-Jun-18 01:58S 32°55' E 151°46'0 0.0
2017-Jun-18 01:28S 32°55' E 151°46'0 0.0
2017-Jun-18 00:58S 32°55' E 151°46'0 0.0
2017-Jun-18 00:28S 32°55' E 151°46'0 0.0
2017-Jun-17 23:58S 32°55' E 151°46'0 0.0
2017-Jun-17 23:28S 32°55' E 151°46'0 0.0
2017-Jun-17 22:58S 32°55' E 151°46'0 0.0
2017-Jun-17 22:28S 32°55' E 151°46'0 0.0
2017-Jun-17 21:58S 32°55' E 151°46'0 0.0
2017-Jun-17 21:28S 32°55' E 151°46'0 0.0
2017-Jun-17 20:58S 32°55' E 151°46'0 0.0
2017-Jun-17 20:28S 32°55' E 151°46'0 0.0
2017-Jun-17 19:58S 32°55' E 151°46'0 0.0
2017-Jun-17 19:28S 32°55' E 151°46'0 0.0
2017-Jun-17 18:58S 32°55' E 151°46'0 0.0
2017-Jun-17 18:28S 32°55' E 151°46'0 0.0
2017-Jun-17 17:58S 32°55' E 151°46'0 0.0
2017-Jun-17 17:28S 32°55' E 151°46'0 0.0
2017-Jun-17 16:58S 32°55' E 151°46'0 0.0
2017-Jun-17 16:28S 32°55' E 151°46'0 0.0
2017-Jun-17 15:58S 32°55' E 151°46'0 0.0
2017-Jun-17 15:28S 32°55' E 151°46'0 0.0
2017-Jun-17 14:58S 32°55' E 151°46'0 0.0
2017-Jun-17 13:58S 32°55' E 151°46'0 0.0
2017-Jun-17 13:28S 32°55' E 151°46'0 0.0
2017-Jun-17 12:58S 32°55' E 151°46'0 0.0
2017-Jun-17 12:28S 32°55' E 151°46'0 0.0
2017-Jun-17 11:58S 32°55' E 151°46'0 0.0
2017-Jun-17 11:28S 32°55' E 151°46'0 0.0
2017-Jun-17 10:58S 32°55' E 151°46'0 0.0
2017-Jun-17 10:28S 32°55' E 151°46'0 0.0
2017-Jun-17 09:58S 32°55' E 151°46'0 0.0
2017-Jun-17 09:28S 32°55' E 151°46'0 0.0
2017-Jun-17 08:58S 32°55' E 151°46'0 0.0
2017-Jun-17 08:28S 32°55' E 151°46'0 0.0
2017-Jun-17 07:58S 32°55' E 151°46'0 0.0
2017-Jun-17 07:28S 32°55' E 151°46'0 0.0
2017-Jun-17 06:58S 32°55' E 151°46'0 0.0
2017-Jun-17 06:28S 32°55' E 151°46'0 0.0
2017-Jun-17 05:58S 32°55' E 151°46'0 0.0
2017-Jun-17 05:28S 32°55' E 151°46'0 0.0
2017-Jun-17 04:58S 32°55' E 151°46'0 0.0
2017-Jun-17 04:28S 32°55' E 151°46'0 0.0
2017-Jun-17 03:58S 32°55' E 151°46'0 0.0
2017-Jun-17 03:28S 32°55' E 151°46'0 0.0
2017-Jun-17 02:58S 32°55' E 151°46'0 0.0
2017-Jun-17 02:28S 32°55' E 151°46'0 0.0
2017-Jun-17 01:58S 32°55' E 151°46'0 0.0
2017-Jun-17 01:28S 32°55' E 151°46'0 0.0
2017-Jun-17 00:58S 32°55' E 151°46'0 0.0
2017-Jun-17 00:28S 32°55' E 151°46'0 0.0
2017-Jun-16 23:58S 32°55' E 151°46'0 0.0
2017-Jun-16 23:28S 32°55' E 151°46'0 0.0
2017-Jun-16 22:58S 32°55' E 151°46'0 0.0
2017-Jun-16 22:28S 32°55' E 151°46'0 0.0
2017-Jun-16 21:55S 32°55' E 151°46'0 0.0
2017-Jun-16 21:28S 32°55' E 151°46'0 0.0
2017-Jun-16 20:58S 32°55' E 151°46'0 0.0
2017-Jun-16 20:28S 32°55' E 151°46'0 0.0
2017-Jun-16 19:58S 32°55' E 151°46'0 0.0
2017-Jun-16 19:28S 32°55' E 151°46'0 0.0
2017-Jun-16 18:58S 32°55' E 151°46'0 0.0
2017-Jun-16 18:28S 32°55' E 151°46'0 0.0
2017-Jun-16 17:58S 32°55' E 151°46'0 0.0
2017-Jun-16 17:28S 32°55' E 151°46'0 0.0
2017-Jun-16 16:58S 32°55' E 151°46'0 0.0
2017-Jun-16 16:28S 32°55' E 151°46'0 0.0
2017-Jun-16 15:58S 32°55' E 151°46'0 0.0
2017-Jun-16 15:28S 32°55' E 151°46'0 0.0
2017-Jun-16 14:58S 32°55' E 151°46'0 0.0
2017-Jun-16 14:28S 32°55' E 151°46'0 0.0
2017-Jun-16 13:28S 32°55' E 151°46'0 0.0
2017-Jun-16 12:58S 32°55' E 151°46'0 0.0
2017-Jun-16 12:28S 32°55' E 151°46'0 0.0
2017-Jun-16 11:58S 32°55' E 151°46'0 0.0
2017-Jun-16 11:28S 32°55' E 151°46'0 0.0
2017-Jun-16 10:58S 32°55' E 151°46'0 0.0
2017-Jun-16 10:28S 32°55' E 151°46'0 0.0
2017-Jun-16 09:58S 32°55' E 151°46'0 0.0
2017-Jun-16 09:28S 32°55' E 151°46'0 0.0
2017-Jun-16 08:58S 32°55' E 151°46'0 0.0
2017-Jun-16 08:28S 32°55' E 151°46'0 0.0
2017-Jun-16 07:58S 32°55' E 151°46'0 0.0
2017-Jun-16 07:28S 32°55' E 151°46'0 0.0
2017-Jun-16 06:58S 32°55' E 151°46'0 0.0
2017-Jun-16 06:28S 32°55' E 151°46'0 0.0
2017-Jun-16 05:58S 32°55' E 151°46'0 0.0
2017-Jun-16 05:28S 32°55' E 151°46'0 0.0
2017-Jun-16 04:58S 32°55' E 151°46'0 0.0
2017-Jun-16 04:28S 32°55' E 151°46'0 0.0
2017-Jun-16 03:58S 32°55' E 151°46'0 0.0
2017-Jun-16 03:28S 32°55' E 151°46'0 0.0
2017-Jun-16 02:58S 32°55' E 151°46'0 0.0
2017-Jun-16 02:28S 32°55' E 151°46'0 0.0
2017-Jun-16 01:58S 32°55' E 151°46'0 0.0
2017-Jun-16 01:28S 32°55' E 151°46'0 0.0
2017-Jun-16 00:58S 32°55' E 151°46'0 0.0
2017-Jun-16 00:28S 32°55' E 151°46'0 0.0
2017-Jun-15 23:58S 32°55' E 151°46'0 0.0
2017-Jun-15 23:28S 32°55' E 151°46'0 0.0
2017-Jun-15 22:58S 32°55' E 151°46'0 0.0
2017-Jun-15 22:28S 32°55' E 151°46'0 0.0
2017-Jun-15 21:58S 32°55' E 151°46'0 0.0
2017-Jun-15 21:28S 32°55' E 151°46'0 0.0
2017-Jun-15 20:58S 32°55' E 151°46'0 0.0
2017-Jun-15 20:28S 32°55' E 151°46'0 0.0
2017-Jun-15 19:58S 32°55' E 151°46'0 0.0
2017-Jun-15 19:28S 32°55' E 151°46'0 0.0
2017-Jun-15 18:58S 32°55' E 151°46'0 0.0
2017-Jun-15 18:28S 32°55' E 151°46'0 0.0
2017-Jun-15 17:58S 32°55' E 151°46'0 0.0
2017-Jun-15 17:28S 32°55' E 151°46'0 0.0
2017-Jun-15 16:58S 32°55' E 151°46'0 0.0
2017-Jun-15 16:28S 32°55' E 151°46'0 0.0
2017-Jun-15 15:58S 32°55' E 151°46'0 0.0
2017-Jun-15 15:28S 32°55' E 151°46'0 0.0
2017-Jun-15 14:58S 32°55' E 151°46'0 0.0
2017-Jun-15 14:28S 32°55' E 151°46'0 0.0
2017-Jun-15 13:28S 32°55' E 151°46'0 0.0
2017-Jun-15 12:58S 32°55' E 151°46'0 0.0
2017-Jun-15 12:28S 32°55' E 151°46'0 0.0
2017-Jun-15 11:58S 32°55' E 151°46'0 0.0
2017-Jun-15 11:28S 32°55' E 151°46'0 0.0
2017-Jun-15 10:58S 32°55' E 151°46'0 0.0
2017-Jun-15 10:28S 32°55' E 151°46'0 0.0
2017-Jun-15 09:58S 32°55' E 151°46'0 0.0
2017-Jun-15 09:28S 32°55' E 151°46'0 0.0
2017-Jun-15 08:58S 32°55' E 151°46'0 0.0
2017-Jun-15 08:28S 32°55' E 151°46'0 0.0
2017-Jun-15 07:58S 32°55' E 151°46'0 0.0
2017-Jun-15 07:28S 32°55' E 151°46'0 0.0
2017-Jun-15 06:58S 32°55' E 151°46'0 0.0
2017-Jun-15 06:28S 32°55' E 151°46'0 0.0
2017-Jun-15 05:58S 32°55' E 151°46'0 0.0
2017-Jun-15 05:28S 32°55' E 151°46'0 0.0
2017-Jun-15 04:58S 32°55' E 151°46'0 0.0
2017-Jun-15 04:28S 32°55' E 151°46'0 0.0
2017-Jun-15 03:58S 32°55' E 151°46'0 0.0
2017-Jun-15 03:28S 32°55' E 151°46'0 0.0
2017-Jun-15 02:58S 32°55' E 151°46'0 0.0
2017-Jun-15 02:28S 32°55' E 151°46'0 0.0
2017-Jun-15 01:58S 32°55' E 151°46'0 0.0
2017-Jun-15 01:28S 32°55' E 151°46'0 0.0
2017-Jun-15 00:58S 32°55' E 151°46'0 0.0
2017-Jun-15 00:28S 32°55' E 151°46'0 0.0
2017-Jun-14 23:58S 32°55' E 151°46'0 0.0
2017-Jun-14 23:28S 32°55' E 151°46'0 0.0
2017-Jun-14 22:58S 32°55' E 151°46'0 0.0
2017-Jun-14 22:28S 32°55' E 151°46'0 0.0
2017-Jun-14 21:58S 32°55' E 151°46'0 0.0
2017-Jun-14 21:28S 32°55' E 151°46'0 0.0
2017-Jun-14 20:58S 32°55' E 151°46'0 0.0
2017-Jun-14 20:28S 32°55' E 151°46'0 0.0
2017-Jun-14 19:58S 32°55' E 151°46'0 0.0
2017-Jun-14 19:28S 32°55' E 151°46'0 0.0
2017-Jun-14 18:58S 32°55' E 151°46'0 0.0
2017-Jun-14 18:28S 32°55' E 151°46'0 0.0
2017-Jun-14 17:58S 32°55' E 151°46'0 0.0
2017-Jun-14 17:28S 32°55' E 151°46'0 0.0
2017-Jun-14 16:58S 32°55' E 151°46'0 0.0
2017-Jun-14 16:28S 32°55' E 151°46'0 0.0
2017-Jun-14 15:58S 32°55' E 151°46'0 0.0
2017-Jun-14 15:28S 32°55' E 151°46'0 0.0
2017-Jun-14 14:58S 32°55' E 151°46'0 0.0
2017-Jun-14 13:58S 32°55' E 151°46'0 0.0
2017-Jun-14 13:28S 32°55' E 151°46'0 0.0
2017-Jun-14 12:58S 32°55' E 151°46'0 0.0
2017-Jun-14 12:28S 32°55' E 151°46'0 0.0
2017-Jun-14 11:58S 32°55' E 151°46'0 0.0
2017-Jun-14 11:28S 32°55' E 151°46'0 0.0
2017-Jun-14 10:58S 32°55' E 151°46'0 0.0
2017-Jun-14 10:28S 32°55' E 151°46'0 0.0
2017-Jun-14 09:58S 32°55' E 151°46'0 0.0
2017-Jun-14 09:28S 32°55' E 151°46'0 0.0
2017-Jun-14 08:58S 32°55' E 151°46'0 0.0
2017-Jun-14 08:28S 32°55' E 151°46'0 0.0
2017-Jun-14 07:58S 32°55' E 151°46'0 0.0
2017-Jun-14 07:28S 32°55' E 151°46'0 0.0
2017-Jun-14 06:58S 32°55' E 151°46'0 0.0
2017-Jun-14 06:28S 32°55' E 151°46'0 0.0
2017-Jun-14 05:58S 32°55' E 151°46'0 0.0
2017-Jun-14 05:28S 32°55' E 151°46'0 0.0
2017-Jun-14 04:58S 32°55' E 151°46'0 0.0
2017-Jun-14 04:28S 32°55' E 151°46'0 0.0
2017-Jun-14 03:58S 32°55' E 151°46'0 0.0
2017-Jun-14 03:28S 32°55' E 151°46'0 0.0
2017-Jun-14 02:58S 32°55' E 151°46'0 0.0
2017-Jun-14 02:28S 32°55' E 151°46'0 0.0
2017-Jun-14 01:58S 32°55' E 151°46'0 0.0
2017-Jun-14 01:28S 32°55' E 151°46'0 0.0
2017-Jun-14 00:58S 32°55' E 151°46'0 0.0
2017-Jun-14 00:28S 32°55' E 151°46'0 0.0
2017-Jun-13 23:58S 32°55' E 151°46'0 0.0
2017-Jun-13 23:28S 32°55' E 151°46'0 0.0
2017-Jun-13 22:58S 32°55' E 151°46'0 0.0
2017-Jun-13 22:28S 32°55' E 151°46'0 0.0
2017-Jun-13 21:58S 32°55' E 151°46'0 0.0
2017-Jun-13 21:28S 32°55' E 151°46'0 0.0
2017-Jun-13 20:58S 32°55' E 151°46'0 0.0
2017-Jun-13 20:28S 32°55' E 151°46'0 0.0
2017-Jun-13 19:58S 32°55' E 151°46'0 0.0
2017-Jun-13 19:28S 32°55' E 151°46'0 0.0
2017-Jun-13 18:58S 32°55' E 151°46'0 0.0
2017-Jun-13 18:28S 32°55' E 151°46'0 0.0
2017-Jun-13 17:58S 32°55' E 151°46'0 0.0
2017-Jun-13 17:25S 32°55' E 151°46'0 0.0
2017-Jun-13 16:58S 32°55' E 151°46'0 0.0
2017-Jun-13 16:28S 32°55' E 151°46'0 0.0
2017-Jun-13 15:58S 32°55' E 151°46'0 0.0
2017-Jun-13 15:28S 32°55' E 151°46'0 0.0
2017-Jun-13 14:58S 32°55' E 151°46'0 0.0
2017-Jun-13 13:58S 32°55' E 151°46'0 0.0
2017-Jun-13 13:28S 32°55' E 151°46'0 0.0
2017-Jun-13 12:58S 32°55' E 151°46'0 0.0
2017-Jun-13 12:28S 32°55' E 151°46'0 0.0
2017-Jun-13 11:58S 32°55' E 151°46'0 0.0
2017-Jun-13 11:28S 32°55' E 151°46'0 0.0
2017-Jun-13 10:58S 32°55' E 151°46'0 0.0
2017-Jun-13 10:28S 32°55' E 151°46'0 0.0
2017-Jun-13 09:58S 32°55' E 151°46'0 0.0
2017-Jun-13 09:28S 32°55' E 151°46'0 0.0
2017-Jun-13 08:58S 32°55' E 151°46'0 0.0
2017-Jun-13 08:28S 32°55' E 151°46'0 0.0
2017-Jun-13 07:58S 32°55' E 151°46'0 0.0
2017-Jun-13 07:25S 32°55' E 151°46'0 0.0
2017-Jun-13 06:58S 32°55' E 151°46'0 0.0
2017-Jun-13 06:28S 32°55' E 151°46'0 0.0
2017-Jun-13 05:58S 32°55' E 151°46'0 0.0
2017-Jun-13 05:28S 32°55' E 151°46'0 0.0
2017-Jun-13 04:58S 32°55' E 151°46'0 0.0
2017-Jun-13 04:28S 32°55' E 151°46'0 0.0
2017-Jun-13 03:58S 32°55' E 151°46'0 0.0
2017-Jun-13 03:28S 32°55' E 151°46'0 0.0
2017-Jun-13 02:58S 32°55' E 151°46'0 0.0
2017-Jun-13 02:28S 32°55' E 151°46'0 0.0
2017-Jun-13 01:58S 32°55' E 151°46'0 0.0
2017-Jun-13 01:28S 32°55' E 151°46'0 0.0
2017-Jun-13 00:58S 32°55' E 151°46'0 0.0
2017-Jun-13 00:28S 32°55' E 151°46'0 0.0
2017-Jun-12 23:58S 32°55' E 151°46'0 0.0
2017-Jun-12 23:28S 32°55' E 151°46'0 0.0
2017-Jun-12 22:58S 32°55' E 151°46'0 0.0
2017-Jun-12 22:28S 32°55' E 151°46'0 0.0
2017-Jun-12 21:58S 32°55' E 151°46'0 0.0
2017-Jun-12 21:28S 32°55' E 151°46'0 0.0
2017-Jun-12 20:58S 32°55' E 151°46'0 0.0
2017-Jun-12 20:28S 32°55' E 151°46'0 0.0
2017-Jun-12 19:58S 32°55' E 151°46'0 0.0
2017-Jun-12 19:28S 32°55' E 151°46'0 0.0
2017-Jun-12 19:00S 32°55' E 151°46'0 0.0
2017-Jun-12 18:30S 32°55' E 151°46'1 2.3
2017-Jun-12 18:00S 32°55' E 151°48'4 7.7
2017-Jun-12 17:31S 32°56' E 151°52'4 8.4
2017-Jun-12 17:00S 33°00' E 151°52'5 6.9
2017-Jun-12 16:21S 33°04' E 151°49'2 6.4
2017-Jun-12 15:59S 33°05' E 151°47'2 1.0
2017-Jun-12 14:03S 33°07' E 151°45'0 0.0
2017-Jun-12 02:03S 33°07' E 151°45'0 0.0
2017-Jun-12 01:57S 33°07' E 151°45'0 0.0
2017-Jun-12 00:27S 33°07' E 151°45'0 0.0
2017-Jun-11 23:57S 33°07' E 151°45'0 0.0
2017-Jun-11 23:27S 33°07' E 151°45'0 0.0
2017-Jun-11 19:03S 33°07' E 151°45'0 0.0
2017-Jun-11 18:42S 33°07' E 151°45'0 0.1
2017-Jun-11 18:30S 33°07' E 151°45'0 0.0
2017-Jun-11 17:57S 33°07' E 151°45'  

Dump ship's entire track history